sensor_id;sensor_type;location;lat;lon;timestamp;P1;durP1;ratioP1;P2;durP2;ratioP2
40541;SDS011;49288;52.194;5.676;2022-12-10T00:00:23;55.03;;;19.77;;
40541;SDS011;49288;52.194;5.676;2022-12-10T00:05:26;72.35;;;24.27;;
40541;SDS011;49288;52.194;5.676;2022-12-10T00:10:29;63.70;;;23.05;;
40541;SDS011;49288;52.194;5.676;2022-12-10T00:15:35;60.35;;;21.83;;
40541;SDS011;49288;52.194;5.676;2022-12-10T00:20:37;61.80;;;21.48;;
40541;SDS011;49288;52.194;5.676;2022-12-10T00:25:40;63.72;;;21.88;;
40541;SDS011;49288;52.194;5.676;2022-12-10T00:30:43;76.10;;;23.88;;
40541;SDS011;49288;52.194;5.676;2022-12-10T00:35:46;66.50;;;21.88;;
40541;SDS011;49288;52.194;5.676;2022-12-10T00:40:49;54.25;;;19.85;;
40541;SDS011;49288;52.194;5.676;2022-12-10T00:45:52;59.67;;;20.38;;
40541;SDS011;49288;52.194;5.676;2022-12-10T00:51:02;53.08;;;18.58;;
40541;SDS011;49288;52.194;5.676;2022-12-10T00:56:08;77.18;;;26.38;;
40541;SDS011;49288;52.194;5.676;2022-12-10T01:06:53;61.75;;;21.67;;
40541;SDS011;49288;52.194;5.676;2022-12-10T01:11:52;60.70;;;21.98;;
40541;SDS011;49288;52.194;5.676;2022-12-10T01:16:59;56.33;;;19.00;;
40541;SDS011;49288;52.194;5.676;2022-12-10T01:22:05;82.28;;;23.77;;
40541;SDS011;49288;52.194;5.676;2022-12-10T01:27:10;52.83;;;18.75;;
40541;SDS011;49288;52.194;5.676;2022-12-10T01:32:13;61.50;;;21.45;;
40541;SDS011;49288;52.194;5.676;2022-12-10T01:37:16;62.05;;;21.35;;
40541;SDS011;49288;52.194;5.676;2022-12-10T01:42:18;53.65;;;18.10;;
40541;SDS011;49288;52.194;5.676;2022-12-10T01:47:21;54.92;;;19.42;;
40541;SDS011;49288;52.194;5.676;2022-12-10T01:52:24;68.47;;;23.73;;
40541;SDS011;49288;52.194;5.676;2022-12-10T01:57:27;71.20;;;24.83;;
40541;SDS011;49288;52.194;5.676;2022-12-10T02:02:40;69.83;;;23.47;;
40541;SDS011;49288;52.194;5.676;2022-12-10T02:28:41;58.20;;;20.42;;
40541;SDS011;49288;52.194;5.676;2022-12-10T02:33:55;59.42;;;19.08;;
40541;SDS011;49288;52.194;5.676;2022-12-10T02:39:01;66.20;;;21.70;;
40541;SDS011;49288;52.194;5.676;2022-12-10T02:44:06;76.88;;;23.02;;
40541;SDS011;49288;52.194;5.676;2022-12-10T02:49:12;70.53;;;22.35;;
40541;SDS011;49288;52.194;5.676;2022-12-10T03:04:57;92.32;;;27.30;;
40541;SDS011;49288;52.194;5.676;2022-12-10T03:10:40;113.20;;;30.42;;
40541;SDS011;49288;52.194;5.676;2022-12-10T03:15:54;187.30;;;45.75;;
40541;SDS011;49288;52.194;5.676;2022-12-10T03:20:58;162.13;;;41.80;;
40541;SDS011;49288;52.194;5.676;2022-12-10T03:26:04;180.65;;;44.95;;
40541;SDS011;49288;52.194;5.676;2022-12-10T03:31:08;207.98;;;43.25;;
40541;SDS011;49288;52.194;5.676;2022-12-10T03:36:14;174.77;;;41.47;;
40541;SDS011;49288;52.194;5.676;2022-12-10T03:41:18;214.90;;;39.05;;
40541;SDS011;49288;52.194;5.676;2022-12-10T03:46:20;174.20;;;37.70;;
40541;SDS011;49288;52.194;5.676;2022-12-10T03:51:25;235.50;;;43.97;;
40541;SDS011;49288;52.194;5.676;2022-12-10T03:56:27;134.90;;;30.25;;
40541;SDS011;49288;52.194;5.676;2022-12-10T04:01:30;199.52;;;42.47;;
40541;SDS011;49288;52.194;5.676;2022-12-10T04:06:33;178.35;;;36.53;;
40541;SDS011;49288;52.194;5.676;2022-12-10T04:11:36;148.65;;;33.30;;
40541;SDS011;49288;52.194;5.676;2022-12-10T04:16:40;157.82;;;34.72;;
40541;SDS011;49288;52.194;5.676;2022-12-10T04:21:43;244.68;;;41.60;;
40541;SDS011;49288;52.194;5.676;2022-12-10T04:27:09;154.23;;;33.75;;
40541;SDS011;49288;52.194;5.676;2022-12-10T04:32:14;178.43;;;35.90;;
40541;SDS011;49288;52.194;5.676;2022-12-10T04:37:18;303.20;;;41.97;;
40541;SDS011;49288;52.194;5.676;2022-12-10T04:42:21;192.55;;;37.58;;
40541;SDS011;49288;52.194;5.676;2022-12-10T04:47:24;122.75;;;30.55;;
40541;SDS011;49288;52.194;5.676;2022-12-10T04:52:27;201.40;;;37.67;;
40541;SDS011;49288;52.194;5.676;2022-12-10T04:57:30;196.48;;;36.90;;
40541;SDS011;49288;52.194;5.676;2022-12-10T05:02:33;142.77;;;31.52;;
40541;SDS011;49288;52.194;5.676;2022-12-10T05:07:35;131.15;;;27.23;;
40541;SDS011;49288;52.194;5.676;2022-12-10T05:12:38;125.00;;;25.45;;
40541;SDS011;49288;52.194;5.676;2022-12-10T05:17:41;102.43;;;24.50;;
40541;SDS011;49288;52.194;5.676;2022-12-10T05:22:44;86.53;;;20.08;;
40541;SDS011;49288;52.194;5.676;2022-12-10T05:28:05;144.93;;;27.73;;
40541;SDS011;49288;52.194;5.676;2022-12-10T05:33:07;104.95;;;25.92;;
40541;SDS011;49288;52.194;5.676;2022-12-10T05:38:10;109.43;;;30.40;;
40541;SDS011;49288;52.194;5.676;2022-12-10T05:43:13;127.00;;;29.05;;
40541;SDS011;49288;52.194;5.676;2022-12-10T05:48:15;102.85;;;27.45;;
40541;SDS011;49288;52.194;5.676;2022-12-10T05:53:19;104.68;;;29.55;;
40541;SDS011;49288;52.194;5.676;2022-12-10T05:58:21;91.68;;;23.65;;
40541;SDS011;49288;52.194;5.676;2022-12-10T06:03:24;85.50;;;20.25;;
40541;SDS011;49288;52.194;5.676;2022-12-10T06:13:32;96.28;;;23.38;;
40541;SDS011;49288;52.194;5.676;2022-12-10T06:18:36;36.63;;;12.73;;
40541;SDS011;49288;52.194;5.676;2022-12-10T06:23:39;82.75;;;22.40;;
40541;SDS011;49288;52.194;5.676;2022-12-10T06:28:45;47.28;;;14.43;;
40541;SDS011;49288;52.194;5.676;2022-12-10T06:33:49;68.88;;;16.60;;
40541;SDS011;49288;52.194;5.676;2022-12-10T06:38:52;50.58;;;15.55;;
40541;SDS011;49288;52.194;5.676;2022-12-10T06:43:55;71.45;;;20.92;;
40541;SDS011;49288;52.194;5.676;2022-12-10T06:49:01;98.53;;;22.48;;
40541;SDS011;49288;52.194;5.676;2022-12-10T06:54:04;71.40;;;19.85;;
40541;SDS011;49288;52.194;5.676;2022-12-10T06:59:07;74.80;;;22.83;;
40541;SDS011;49288;52.194;5.676;2022-12-10T07:04:11;61.83;;;19.75;;
40541;SDS011;49288;52.194;5.676;2022-12-10T07:09:14;89.32;;;22.42;;
40541;SDS011;49288;52.194;5.676;2022-12-10T07:14:18;66.05;;;18.52;;
40541;SDS011;49288;52.194;5.676;2022-12-10T07:19:22;99.75;;;27.13;;
40541;SDS011;49288;52.194;5.676;2022-12-10T07:24:24;130.43;;;35.63;;
40541;SDS011;49288;52.194;5.676;2022-12-10T07:29:28;119.30;;;28.73;;
40541;SDS011;49288;52.194;5.676;2022-12-10T07:34:31;99.22;;;25.13;;
40541;SDS011;49288;52.194;5.676;2022-12-10T07:39:34;75.40;;;19.27;;
40541;SDS011;49288;52.194;5.676;2022-12-10T07:44:37;117.40;;;25.42;;
40541;SDS011;49288;52.194;5.676;2022-12-10T07:49:39;137.15;;;29.70;;
40541;SDS011;49288;52.194;5.676;2022-12-10T07:54:44;140.13;;;32.42;;
40541;SDS011;49288;52.194;5.676;2022-12-10T07:59:47;130.88;;;28.13;;
40541;SDS011;49288;52.194;5.676;2022-12-10T08:04:49;149.40;;;35.03;;
40541;SDS011;49288;52.194;5.676;2022-12-10T08:09:52;140.30;;;33.22;;
40541;SDS011;49288;52.194;5.676;2022-12-10T08:14:55;169.88;;;35.30;;
40541;SDS011;49288;52.194;5.676;2022-12-10T08:19:57;143.88;;;33.10;;
40541;SDS011;49288;52.194;5.676;2022-12-10T08:25:01;120.65;;;30.05;;
40541;SDS011;49288;52.194;5.676;2022-12-10T08:30:04;90.10;;;23.17;;
40541;SDS011;49288;52.194;5.676;2022-12-10T08:35:08;115.95;;;28.80;;
40541;SDS011;49288;52.194;5.676;2022-12-10T08:40:11;68.50;;;19.00;;
40541;SDS011;49288;52.194;5.676;2022-12-10T08:45:14;55.33;;;14.65;;
40541;SDS011;49288;52.194;5.676;2022-12-10T08:50:16;76.15;;;19.73;;
40541;SDS011;49288;52.194;5.676;2022-12-10T08:55:19;105.47;;;27.10;;
40541;SDS011;49288;52.194;5.676;2022-12-10T09:00:22;107.28;;;23.98;;
40541;SDS011;49288;52.194;5.676;2022-12-10T09:05:26;17.98;;;7.93;;
40541;SDS011;49288;52.194;5.676;2022-12-10T09:10:29;69.28;;;18.80;;
40541;SDS011;49288;52.194;5.676;2022-12-10T09:15:32;60.17;;;17.15;;
40541;SDS011;49288;52.194;5.676;2022-12-10T09:20:36;91.68;;;25.63;;
40541;SDS011;49288;52.194;5.676;2022-12-10T09:25:38;75.40;;;20.95;;
40541;SDS011;49288;52.194;5.676;2022-12-10T09:30:44;93.90;;;24.88;;
40541;SDS011;49288;52.194;5.676;2022-12-10T09:35:47;84.68;;;23.73;;
40541;SDS011;49288;52.194;5.676;2022-12-10T09:41:28;89.75;;;25.00;;
40541;SDS011;49288;52.194;5.676;2022-12-10T09:46:48;94.30;;;25.33;;
40541;SDS011;49288;52.194;5.676;2022-12-10T09:51:58;106.07;;;26.40;;
40541;SDS011;49288;52.194;5.676;2022-12-10T09:57:03;79.88;;;22.92;;
40541;SDS011;49288;52.194;5.676;2022-12-10T10:07:22;139.52;;;30.50;;
40541;SDS011;49288;52.194;5.676;2022-12-10T10:12:27;119.22;;;26.50;;
40541;SDS011;49288;52.194;5.676;2022-12-10T10:17:50;126.53;;;28.25;;
40541;SDS011;49288;52.194;5.676;2022-12-10T10:22:55;71.07;;;20.08;;
40541;SDS011;49288;52.194;5.676;2022-12-10T10:27:59;105.63;;;29.77;;
40541;SDS011;49288;52.194;5.676;2022-12-10T10:33:03;97.22;;;26.27;;
40541;SDS011;49288;52.194;5.676;2022-12-10T10:48:27;54.60;;;16.20;;
40541;SDS011;49288;52.194;5.676;2022-12-10T10:53:31;45.30;;;14.13;;
40541;SDS011;49288;52.194;5.676;2022-12-10T10:58:53;38.75;;;12.10;;
40541;SDS011;49288;52.194;5.676;2022-12-10T11:04:02;55.90;;;15.05;;
40541;SDS011;49288;52.194;5.676;2022-12-10T11:09:05;82.00;;;21.10;;
40541;SDS011;49288;52.194;5.676;2022-12-10T11:14:13;82.40;;;20.20;;
40541;SDS011;49288;52.194;5.676;2022-12-10T11:19:18;52.45;;;16.73;;
40541;SDS011;49288;52.194;5.676;2022-12-10T11:24:22;93.82;;;23.30;;
40541;SDS011;49288;52.194;5.676;2022-12-10T11:51:17;93.63;;;23.42;;
40541;SDS011;49288;52.194;5.676;2022-12-10T11:56:52;89.32;;;21.02;;
40541;SDS011;49288;52.194;5.676;2022-12-10T12:07:40;86.13;;;22.38;;
40541;SDS011;49288;52.194;5.676;2022-12-10T12:13:04;72.25;;;21.88;;
40541;SDS011;49288;52.194;5.676;2022-12-10T12:18:22;71.97;;;20.10;;
40541;SDS011;49288;52.194;5.676;2022-12-10T12:23:41;62.13;;;18.65;;
40541;SDS011;49288;52.194;5.676;2022-12-10T12:29:19;39.63;;;14.02;;
40541;SDS011;49288;52.194;5.676;2022-12-10T12:34:38;58.53;;;18.38;;
40541;SDS011;49288;52.194;5.676;2022-12-10T12:40:19;48.42;;;15.95;;
40541;SDS011;49288;52.194;5.676;2022-12-10T12:45:38;72.93;;;20.23;;
40541;SDS011;49288;52.194;5.676;2022-12-10T12:50:43;59.80;;;17.35;;
40541;SDS011;49288;52.194;5.676;2022-12-10T13:01:12;47.53;;;14.15;;
40541;SDS011;49288;52.194;5.676;2022-12-10T13:06:23;55.13;;;15.30;;
40541;SDS011;49288;52.194;5.676;2022-12-10T13:11:33;66.88;;;20.27;;
40541;SDS011;49288;52.194;5.676;2022-12-10T13:27:29;69.68;;;19.77;;
40541;SDS011;49288;52.194;5.676;2022-12-10T13:42:59;98.53;;;19.00;;
40541;SDS011;49288;52.194;5.676;2022-12-10T13:48:55;73.20;;;19.15;;
40541;SDS011;49288;52.194;5.676;2022-12-10T13:59:47;70.40;;;19.13;;
40541;SDS011;49288;52.194;5.676;2022-12-10T14:10:24;112.88;;;23.55;;
40541;SDS011;49288;52.194;5.676;2022-12-10T14:15:34;44.67;;;14.50;;
40541;SDS011;49288;52.194;5.676;2022-12-10T14:20:39;58.25;;;17.65;;
40541;SDS011;49288;52.194;5.676;2022-12-10T14:25:46;68.65;;;20.95;;
40541;SDS011;49288;52.194;5.676;2022-12-10T14:30:49;46.40;;;14.40;;
40541;SDS011;49288;52.194;5.676;2022-12-10T14:35:52;91.35;;;18.55;;
40541;SDS011;49288;52.194;5.676;2022-12-10T14:40:54;78.15;;;22.00;;
40541;SDS011;49288;52.194;5.676;2022-12-10T14:45:58;79.60;;;20.75;;
40541;SDS011;49288;52.194;5.676;2022-12-10T14:51:02;91.15;;;27.33;;
40541;SDS011;49288;52.194;5.676;2022-12-10T14:56:06;49.08;;;15.30;;
40541;SDS011;49288;52.194;5.676;2022-12-10T15:01:16;63.65;;;19.13;;
40541;SDS011;49288;52.194;5.676;2022-12-10T15:06:25;59.50;;;18.52;;
40541;SDS011;49288;52.194;5.676;2022-12-10T15:11:28;46.55;;;16.35;;
40541;SDS011;49288;52.194;5.676;2022-12-10T15:16:39;59.40;;;17.77;;
40541;SDS011;49288;52.194;5.676;2022-12-10T15:21:45;57.25;;;17.70;;
40541;SDS011;49288;52.194;5.676;2022-12-10T15:26:50;55.47;;;16.67;;
40541;SDS011;49288;52.194;5.676;2022-12-10T15:31:54;76.87;;;21.57;;
40541;SDS011;49288;52.194;5.676;2022-12-10T15:37:03;63.65;;;18.88;;
40541;SDS011;49288;52.194;5.676;2022-12-10T15:42:07;64.90;;;19.30;;
40541;SDS011;49288;52.194;5.676;2022-12-10T15:47:23;63.53;;;19.65;;
40541;SDS011;49288;52.194;5.676;2022-12-10T15:52:28;68.57;;;19.67;;
40541;SDS011;49288;52.194;5.676;2022-12-10T16:07:47;73.15;;;18.85;;
40541;SDS011;49288;52.194;5.676;2022-12-10T16:18:08;72.70;;;18.02;;
40541;SDS011;49288;52.194;5.676;2022-12-10T16:23:13;68.85;;;19.80;;
40541;SDS011;49288;52.194;5.676;2022-12-10T16:28:17;110.82;;;23.10;;
40541;SDS011;49288;52.194;5.676;2022-12-10T16:33:22;94.88;;;22.10;;
40541;SDS011;49288;52.194;5.676;2022-12-10T16:38:26;117.40;;;23.95;;
40541;SDS011;49288;52.194;5.676;2022-12-10T16:43:29;138.05;;;23.40;;
40541;SDS011;49288;52.194;5.676;2022-12-10T16:48:32;85.40;;;21.33;;
40541;SDS011;49288;52.194;5.676;2022-12-10T16:53:35;102.68;;;22.50;;
40541;SDS011;49288;52.194;5.676;2022-12-10T16:58:38;103.00;;;22.75;;
40541;SDS011;49288;52.194;5.676;2022-12-10T17:03:41;52.15;;;15.48;;
40541;SDS011;49288;52.194;5.676;2022-12-10T17:08:44;93.68;;;22.80;;
40541;SDS011;49288;52.194;5.676;2022-12-10T17:13:47;97.85;;;23.20;;
40541;SDS011;49288;52.194;5.676;2022-12-10T17:18:50;86.88;;;21.92;;
40541;SDS011;49288;52.194;5.676;2022-12-10T17:23:52;119.32;;;24.63;;
40541;SDS011;49288;52.194;5.676;2022-12-10T17:29:00;77.45;;;19.60;;
40541;SDS011;49288;52.194;5.676;2022-12-10T17:34:06;91.30;;;23.33;;
40541;SDS011;49288;52.194;5.676;2022-12-10T17:39:11;112.35;;;22.50;;
40541;SDS011;49288;52.194;5.676;2022-12-10T17:44:24;90.10;;;21.98;;
40541;SDS011;49288;52.194;5.676;2022-12-10T17:49:28;91.80;;;22.07;;
40541;SDS011;49288;52.194;5.676;2022-12-10T17:54:30;42.28;;;11.43;;
40541;SDS011;49288;52.194;5.676;2022-12-10T17:59:33;71.22;;;19.52;;
40541;SDS011;49288;52.194;5.676;2022-12-10T18:04:37;107.93;;;22.70;;
40541;SDS011;49288;52.194;5.676;2022-12-10T18:09:40;84.03;;;21.10;;
40541;SDS011;49288;52.194;5.676;2022-12-10T18:14:43;109.88;;;23.50;;
40541;SDS011;49288;52.194;5.676;2022-12-10T18:19:46;79.43;;;20.33;;
40541;SDS011;49288;52.194;5.676;2022-12-10T18:24:54;65.35;;;16.83;;
40541;SDS011;49288;52.194;5.676;2022-12-10T18:29:57;88.10;;;21.25;;
40541;SDS011;49288;52.194;5.676;2022-12-10T18:35:00;107.10;;;23.50;;
40541;SDS011;49288;52.194;5.676;2022-12-10T18:40:07;96.10;;;23.98;;
40541;SDS011;49288;52.194;5.676;2022-12-10T18:45:13;116.00;;;25.40;;
40541;SDS011;49288;52.194;5.676;2022-12-10T18:50:20;98.80;;;24.95;;
40541;SDS011;49288;52.194;5.676;2022-12-10T18:55:25;68.85;;;18.40;;
40541;SDS011;49288;52.194;5.676;2022-12-10T19:00:28;82.97;;;20.00;;
40541;SDS011;49288;52.194;5.676;2022-12-10T19:05:30;74.35;;;19.25;;
40541;SDS011;49288;52.194;5.676;2022-12-10T19:10:33;122.45;;;26.00;;
40541;SDS011;49288;52.194;5.676;2022-12-10T19:15:36;63.30;;;16.83;;
40541;SDS011;49288;52.194;5.676;2022-12-10T19:20:45;82.35;;;21.95;;
40541;SDS011;49288;52.194;5.676;2022-12-10T19:25:47;79.47;;;20.63;;
40541;SDS011;49288;52.194;5.676;2022-12-10T19:30:50;107.05;;;24.27;;
40541;SDS011;49288;52.194;5.676;2022-12-10T19:35:53;94.15;;;24.45;;
40541;SDS011;49288;52.194;5.676;2022-12-10T19:40:56;112.03;;;27.10;;
40541;SDS011;49288;52.194;5.676;2022-12-10T19:46:08;82.60;;;21.17;;
40541;SDS011;49288;52.194;5.676;2022-12-10T19:51:37;66.93;;;20.45;;
40541;SDS011;49288;52.194;5.676;2022-12-10T19:56:41;84.90;;;22.25;;
40541;SDS011;49288;52.194;5.676;2022-12-10T20:01:44;99.43;;;23.65;;
40541;SDS011;49288;52.194;5.676;2022-12-10T20:06:47;81.55;;;20.27;;
40541;SDS011;49288;52.194;5.676;2022-12-10T20:11:51;103.05;;;23.83;;
40541;SDS011;49288;52.194;5.676;2022-12-10T20:16:54;104.40;;;23.77;;
40541;SDS011;49288;52.194;5.676;2022-12-10T20:21:57;111.00;;;25.42;;
40541;SDS011;49288;52.194;5.676;2022-12-10T20:27:00;95.75;;;22.50;;
40541;SDS011;49288;52.194;5.676;2022-12-10T20:32:03;125.38;;;25.73;;
40541;SDS011;49288;52.194;5.676;2022-12-10T20:37:05;121.93;;;26.65;;
40541;SDS011;49288;52.194;5.676;2022-12-10T20:42:08;137.43;;;29.48;;
40541;SDS011;49288;52.194;5.676;2022-12-10T20:47:11;106.30;;;23.95;;
40541;SDS011;49288;52.194;5.676;2022-12-10T20:52:13;112.50;;;25.42;;
40541;SDS011;49288;52.194;5.676;2022-12-10T20:57:16;127.55;;;26.30;;
40541;SDS011;49288;52.194;5.676;2022-12-10T21:02:19;96.05;;;22.95;;
40541;SDS011;49288;52.194;5.676;2022-12-10T21:07:22;104.93;;;25.27;;
40541;SDS011;49288;52.194;5.676;2022-12-10T21:12:25;119.07;;;26.38;;
40541;SDS011;49288;52.194;5.676;2022-12-10T21:17:28;100.20;;;23.40;;
40541;SDS011;49288;52.194;5.676;2022-12-10T21:22:31;59.38;;;14.50;;
40541;SDS011;49288;52.194;5.676;2022-12-10T21:27:34;96.63;;;23.95;;
40541;SDS011;49288;52.194;5.676;2022-12-10T21:32:36;107.93;;;24.42;;
40541;SDS011;49288;52.194;5.676;2022-12-10T21:37:40;119.07;;;24.58;;
40541;SDS011;49288;52.194;5.676;2022-12-10T21:42:43;110.82;;;25.48;;
40541;SDS011;49288;52.194;5.676;2022-12-10T21:48:05;145.65;;;29.88;;
40541;SDS011;49288;52.194;5.676;2022-12-10T21:53:09;130.23;;;28.00;;
40541;SDS011;49288;52.194;5.676;2022-12-10T21:58:12;125.60;;;27.75;;
40541;SDS011;49288;52.194;5.676;2022-12-10T22:03:15;135.80;;;26.77;;
40541;SDS011;49288;52.194;5.676;2022-12-10T22:08:18;123.32;;;26.95;;
40541;SDS011;49288;52.194;5.676;2022-12-10T22:13:22;111.10;;;24.50;;
40541;SDS011;49288;52.194;5.676;2022-12-10T22:18:25;105.78;;;25.95;;
40541;SDS011;49288;52.194;5.676;2022-12-10T22:23:28;96.38;;;22.85;;
40541;SDS011;49288;52.194;5.676;2022-12-10T22:28:31;93.70;;;23.85;;
40541;SDS011;49288;52.194;5.676;2022-12-10T22:33:34;83.68;;;20.83;;
40541;SDS011;49288;52.194;5.676;2022-12-10T22:38:38;105.15;;;23.38;;
40541;SDS011;49288;52.194;5.676;2022-12-10T22:43:40;103.88;;;24.10;;
40541;SDS011;49288;52.194;5.676;2022-12-10T22:48:53;131.63;;;26.88;;
40541;SDS011;49288;52.194;5.676;2022-12-10T22:53:55;88.93;;;22.63;;
40541;SDS011;49288;52.194;5.676;2022-12-10T22:59:01;106.03;;;26.65;;
40541;SDS011;49288;52.194;5.676;2022-12-10T23:04:03;120.40;;;26.40;;
40541;SDS011;49288;52.194;5.676;2022-12-10T23:09:06;88.72;;;22.40;;
40541;SDS011;49288;52.194;5.676;2022-12-10T23:14:09;96.45;;;22.95;;
40541;SDS011;49288;52.194;5.676;2022-12-10T23:19:13;98.30;;;24.67;;
40541;SDS011;49288;52.194;5.676;2022-12-10T23:24:16;99.22;;;23.73;;
40541;SDS011;49288;52.194;5.676;2022-12-10T23:29:19;99.95;;;23.35;;
40541;SDS011;49288;52.194;5.676;2022-12-10T23:34:21;106.80;;;25.30;;
40541;SDS011;49288;52.194;5.676;2022-12-10T23:39:24;90.15;;;23.23;;
40541;SDS011;49288;52.194;5.676;2022-12-10T23:44:27;100.22;;;24.23;;
40541;SDS011;49288;52.194;5.676;2022-12-10T23:49:30;67.93;;;16.83;;
40541;SDS011;49288;52.194;5.676;2022-12-10T23:54:32;92.78;;;21.10;;
40541;SDS011;49288;52.194;5.676;2022-12-10T23:59:35;68.72;;;20.25;;
